Time;durP1;ratioP1;P1;durP2;ratioP2;P2;SDS_P1;SDS_P2;PMS_P1;PMS_P2;Temp;Humidity;BMP_temperature;BMP_pressure;BME280_temperature;BME280_humidity;BME280_pressure;Samples;Min_cycle;Max_cycle;Signal;HPM_P1;HPM_P2
2022/01/07 00:00:05;;;;;;;;;;;5.90;99.90;;;;;;5009680;28;19920;-70
2022/01/07 00:02:30;;;;;;;;;;;5.90;99.90;;;;;;5007017;28;19913;-69
2022/01/07 00:04:56;;;;;;;;;;;5.80;99.90;;;;;;5006900;28;20245;-71
2022/01/07 00:07:22;;;;;;;;;;;5.80;99.90;;;;;;5007183;28;19913;-69
2022/01/07 00:09:47;;;;;;;;;;;5.80;99.90;;;;;;5010297;28;19956;-69
2022/01/07 00:12:15;;;;;;;;;;;5.80;99.90;;;;;;5009991;28;19932;-69
2022/01/07 00:14:40;;;;;;;;;;;5.70;99.90;;;;;;5006037;28;19913;-68
2022/01/07 00:17:06;;;;;;;;;;;5.80;99.90;;;;;;5011341;28;20378;-69
2022/01/07 00:19:32;;;;;;;;;;;5.80;99.90;;;;;;5008804;28;20004;-69
2022/01/07 00:21:57;;;;;;;;;;;5.80;99.90;;;;;;5010811;28;19967;-69
2022/01/07 00:24:23;;;;;;;;;;;5.80;99.90;;;;;;5011154;28;19915;-70
2022/01/07 00:26:48;;;;;;;;;;;5.80;99.90;;;;;;5009010;28;19913;-70
2022/01/07 00:29:14;;;;;;;;;;;5.80;99.90;;;;;;5007797;28;19910;-69
2022/01/07 00:31:39;;;;;;;;;;;5.80;99.90;;;;;;5008140;28;19963;-70
2022/01/07 00:34:05;;;;;;;;;;;5.80;99.90;;;;;;5007818;28;19920;-69
2022/01/07 00:36:31;;;;;;;;;;;5.70;99.90;;;;;;5009876;28;19952;-69
2022/01/07 00:38:56;;;;;;;;;;;5.70;99.90;;;;;;5010036;28;19959;-68
2022/01/07 00:41:22;;;;;;;;;;;5.70;99.90;;;;;;5010036;28;20371;-70
2022/01/07 00:43:50;;;;;;;;;;;5.80;99.90;;;;;;5010070;28;20004;-69
2022/01/07 00:46:16;;;;;;;;;;;5.70;99.90;;;;;;5006386;28;20048;-68
2022/01/07 00:48:42;;;;;;;;;;;5.70;99.90;;;;;;5010775;28;20118;-68
2022/01/07 00:51:09;;;;;;;;;;;5.70;99.90;;;;;;5008943;28;20397;-69
2022/01/07 00:53:34;;;;;;;;;;;5.80;99.90;;;;;;5007798;28;19999;-70
2022/01/07 00:56:00;;;;;;;;;;;5.70;99.90;;;;;;5009796;28;20052;-68
2022/01/07 00:58:26;;;;;;;;;;;5.80;99.90;;;;;;5007381;28;19952;-68
2022/01/07 01:00:51;;;;;;;;;;;5.70;99.90;;;;;;5007741;28;19917;-69
2022/01/07 01:03:17;;;;;;;;;;;5.60;99.90;;;;;;5006864;28;20012;-71
2022/01/07 01:05:44;;;;;;;;;;;5.60;99.90;;;;;;5006822;28;19909;-70
2022/01/07 01:08:10;;;;;;;;;;;5.60;99.90;;;;;;5004943;28;19910;-70
2022/01/07 01:10:36;;;;;;;;;;;5.60;99.90;;;;;;5005947;28;20008;-69
2022/01/07 01:13:02;;;;;;;;;;;5.50;99.90;;;;;;5005196;28;19925;-70
2022/01/07 01:15:28;;;;;;;;;;;5.50;99.90;;;;;;5008368;28;19964;-69
2022/01/07 01:17:54;;;;;;;;;;;5.50;99.90;;;;;;5004662;28;19910;-70
2022/01/07 01:20:20;;;;;;;;;;;5.60;99.90;;;;;;5008659;28;20469;-70
2022/01/07 01:22:46;;;;;;;;;;;5.60;99.90;;;;;;5006821;28;19917;-70
2022/01/07 01:25:12;;;;;;;;;;;5.60;99.90;;;;;;5008718;28;20373;-70
2022/01/07 01:27:39;;;;;;;;;;;5.60;99.90;;;;;;5003361;28;19913;-70
2022/01/07 01:30:07;;;;;;;;;;;5.70;99.90;;;;;;5008183;28;20005;-70
2022/01/07 01:32:33;;;;;;;;;;;5.70;99.90;;;;;;5008166;28;19914;-70
2022/01/07 01:35:01;;;;;;;;;;;5.70;99.90;;;;;;5004253;28;20272;-69
2022/01/07 01:37:29;;;;;;;;;;;5.70;99.90;;;;;;5005162;28;20053;-69
2022/01/07 01:39:54;;;;;;;;;;;5.70;99.90;;;;;;5007719;28;19967;-69
2022/01/07 01:42:20;;;;;;;;;;;5.70;99.90;;;;;;5004063;28;20363;-69
2022/01/07 01:44:46;;;;;;;;;;;5.70;99.90;;;;;;5003530;28;20268;-70
2022/01/07 01:47:11;;;;;;;;;;;5.60;99.90;;;;;;5002366;28;20095;-70
2022/01/07 01:49:37;;;;;;;;;;;5.60;99.90;;;;;;5008837;28;19933;-71
2022/01/07 01:52:03;;;;;;;;;;;5.60;99.90;;;;;;5005276;28;20015;-71
2022/01/07 01:54:29;;;;;;;;;;;5.60;99.90;;;;;;5009267;28;19955;-71
2022/01/07 01:56:54;;;;;;;;;;;5.60;99.90;;;;;;5006683;28;20100;-70
2022/01/07 01:59:24;;;;;;;;;;;5.60;99.90;;;;;;5006934;28;19917;-72
2022/01/07 02:01:49;;;;;;;;;;;5.60;99.90;;;;;;5006929;28;19920;-71
2022/01/07 02:04:15;;;;;;;;;;;5.50;99.90;;;;;;5005402;28;19910;-71
2022/01/07 02:06:41;;;;;;;;;;;5.50;99.90;;;;;;5006259;28;19909;-70
2022/01/07 02:09:06;;;;;;;;;;;5.50;99.90;;;;;;5006842;28;19909;-70
2022/01/07 02:11:33;;;;;;;;;;;5.50;99.90;;;;;;5008402;28;19971;-70
2022/01/07 02:13:58;;;;;;;;;;;5.50;99.90;;;;;;5008537;28;19971;-71
2022/01/07 02:16:27;;;;;;;;;;;5.50;99.90;;;;;;5008551;28;19917;-71
2022/01/07 02:18:53;;;;;;;;;;;5.40;99.90;;;;;;5008814;28;19913;-70
2022/01/07 02:21:19;;;;;;;;;;;5.40;99.90;;;;;;5004337;28;19916;-71
2022/01/07 02:23:45;;;;;;;;;;;5.40;99.90;;;;;;5011826;28;19909;-71
2022/01/07 02:26:12;;;;;;;;;;;5.40;99.90;;;;;;5013103;28;19955;-71
2022/01/07 02:28:38;;;;;;;;;;;5.40;99.90;;;;;;5012075;28;19909;-69
2022/01/07 02:31:04;;;;;;;;;;;5.40;99.90;;;;;;5008544;28;19956;-70
2022/01/07 02:33:30;;;;;;;;;;;5.40;99.90;;;;;;5008834;28;19952;-69
2022/01/07 02:35:55;;;;;;;;;;;5.30;99.90;;;;;;5009773;28;19967;-70
2022/01/07 02:38:21;;;;;;;;;;;5.20;99.90;;;;;;5009210;28;20380;-70
2022/01/07 02:40:46;;;;;;;;;;;5.30;99.90;;;;;;5011315;28;19909;-69
2022/01/07 02:43:12;;;;;;;;;;;5.30;99.90;;;;;;5009874;28;19917;-69
2022/01/07 02:45:38;;;;;;;;;;;5.20;99.90;;;;;;5010752;28;20401;-71
2022/01/07 02:48:04;;;;;;;;;;;5.20;99.90;;;;;;5007893;28;21010;-69
2022/01/07 02:50:30;;;;;;;;;;;5.20;99.90;;;;;;5009571;28;19920;-71
2022/01/07 02:52:56;;;;;;;;;;;5.20;99.90;;;;;;5012460;28;19909;-70
2022/01/07 02:55:23;;;;;;;;;;;5.20;99.90;;;;;;5008067;28;19909;-70
2022/01/07 02:57:48;;;;;;;;;;;5.20;99.90;;;;;;5010403;28;20043;-70
2022/01/07 03:00:16;;;;;;;;;;;5.20;99.90;;;;;;5011109;28;20047;-70
2022/01/07 03:02:42;;;;;;;;;;;5.10;99.90;;;;;;5008812;28;19933;-70
2022/01/07 03:05:08;;;;;;;;;;;5.10;99.90;;;;;;5011138;28;19992;-71
2022/01/07 03:07:34;;;;;;;;;;;5.10;99.90;;;;;;5011415;28;20059;-69
2022/01/07 03:09:59;;;;;;;;;;;5.10;99.90;;;;;;5009399;28;19909;-70
2022/01/07 03:12:28;;;;;;;;;;;5.10;99.90;;;;;;5010490;28;19955;-68
2022/01/07 03:14:53;;;;;;;;;;;5.10;99.90;;;;;;5009794;28;19921;-70
2022/01/07 03:17:19;;;;;;;;;;;5.00;99.90;;;;;;5011005;28;19910;-69
2022/01/07 03:19:45;;;;;;;;;;;5.00;99.90;;;;;;5011507;28;19910;-71
2022/01/07 03:22:10;;;;;;;;;;;5.00;99.90;;;;;;5009321;28;20340;-70
2022/01/07 03:24:38;;;;;;;;;;;5.00;99.90;;;;;;5009267;28;19992;-71
2022/01/07 03:27:03;;;;;;;;;;;5.00;99.90;;;;;;5009735;28;19909;-70
2022/01/07 03:29:29;;;;;;;;;;;5.00;99.90;;;;;;5007995;28;19916;-69
2022/01/07 03:31:55;;;;;;;;;;;4.90;99.90;;;;;;5011133;28;19956;-70
2022/01/07 03:34:21;;;;;;;;;;;4.90;99.90;;;;;;5011364;28;20396;-70
2022/01/07 03:36:46;;;;;;;;;;;4.80;99.90;;;;;;5007138;28;19916;-70
2022/01/07 03:39:12;;;;;;;;;;;4.80;99.90;;;;;;5009780;28;20330;-70
2022/01/07 03:41:38;;;;;;;;;;;4.80;99.90;;;;;;5010280;28;19917;-69
2022/01/07 03:44:03;;;;;;;;;;;4.80;99.90;;;;;;5008483;28;19948;-71
2022/01/07 03:46:29;;;;;;;;;;;4.70;99.90;;;;;;5011508;28;19909;-71
2022/01/07 03:48:54;;;;;;;;;;;4.70;99.90;;;;;;5009723;28;19917;-70
2022/01/07 03:51:20;;;;;;;;;;;4.70;99.90;;;;;;5007416;28;19933;-69
2022/01/07 03:53:46;;;;;;;;;;;4.70;99.90;;;;;;5004900;28;20023;-69
2022/01/07 03:56:17;;;;;;;;;;;4.70;99.90;;;;;;5008631;28;20075;-70
2022/01/07 03:58:43;;;;;;;;;;;4.60;99.90;;;;;;5010961;28;20427;-69
2022/01/07 04:01:09;;;;;;;;;;;4.60;99.90;;;;;;5008834;28;19909;-70
2022/01/07 04:03:34;;;;;;;;;;;4.60;99.90;;;;;;5009095;28;20421;-70
2022/01/07 04:06:00;;;;;;;;;;;4.60;99.90;;;;;;5006804;28;20541;-69
2022/01/07 04:08:26;;;;;;;;;;;4.60;99.90;;;;;;5008653;28;20291;-70
2022/01/07 04:10:51;;;;;;;;;;;4.60;99.90;;;;;;5010269;28;20371;-71
2022/01/07 04:13:17;;;;;;;;;;;4.60;99.90;;;;;;5010333;28;19917;-70
2022/01/07 04:15:42;;;;;;;;;;;4.60;99.90;;;;;;5008839;28;19913;-71
2022/01/07 04:18:08;;;;;;;;;;;4.70;99.90;;;;;;5009093;28;19916;-71
2022/01/07 04:20:34;;;;;;;;;;;4.60;99.90;;;;;;5008579;28;19909;-69
2022/01/07 04:23:00;;;;;;;;;;;4.60;99.90;;;;;;5007976;28;19959;-69
2022/01/07 04:25:26;;;;;;;;;;;4.60;99.90;;;;;;5008801;28;19956;-69
2022/01/07 04:27:53;;;;;;;;;;;4.60;99.90;;;;;;5009986;28;19917;-70
2022/01/07 04:30:20;;;;;;;;;;;4.60;99.90;;;;;;5010164;28;20375;-69
2022/01/07 04:32:46;;;;;;;;;;;4.60;99.90;;;;;;5006599;28;19909;-69
2022/01/07 04:35:12;;;;;;;;;;;4.60;99.90;;;;;;5008686;28;19975;-69
2022/01/07 04:37:38;;;;;;;;;;;4.50;99.90;;;;;;5006651;28;19964;-69
2022/01/07 04:40:05;;;;;;;;;;;4.60;99.90;;;;;;5025280;28;19909;-68
2022/01/07 04:42:31;;;;;;;;;;;4.50;99.90;;;;;;5008178;28;19949;-70
2022/01/07 04:44:56;;;;;;;;;;;4.50;99.90;;;;;;5008998;28;19979;-69
2022/01/07 04:47:22;;;;;;;;;;;4.50;99.90;;;;;;5007705;28;19953;-70
2022/01/07 04:49:47;;;;;;;;;;;4.50;99.90;;;;;;5009720;28;20557;-69
2022/01/07 04:52:13;;;;;;;;;;;4.50;99.90;;;;;;5007447;28;19944;-68
2022/01/07 04:54:39;;;;;;;;;;;4.50;99.90;;;;;;5008220;28;19956;-69
2022/01/07 04:57:04;;;;;;;;;;;4.60;99.90;;;;;;5001315;28;19909;-69
2022/01/07 04:59:30;;;;;;;;;;;4.50;99.90;;;;;;5008967;28;19972;-69
2022/01/07 05:01:56;;;;;;;;;;;4.50;99.90;;;;;;5006279;28;19975;-70
2022/01/07 05:04:21;;;;;;;;;;;4.60;99.90;;;;;;5009155;28;19916;-69
2022/01/07 05:06:47;;;;;;;;;;;4.50;99.90;;;;;;5008022;28;20520;-69
2022/01/07 05:09:16;;;;;;;;;;;4.50;99.90;;;;;;5006070;28;19935;-69
2022/01/07 05:11:43;;;;;;;;;;;4.50;99.90;;;;;;5007002;28;19956;-70
2022/01/07 05:14:08;;;;;;;;;;;4.50;99.90;;;;;;5008798;28;19909;-70
2022/01/07 05:16:34;;;;;;;;;;;4.50;99.90;;;;;;5009608;28;19916;-70
2022/01/07 05:19:00;;;;;;;;;;;4.50;99.90;;;;;;5004914;28;19921;-70
2022/01/07 05:21:26;;;;;;;;;;;4.50;99.90;;;;;;5008800;28;19909;-69
2022/01/07 05:23:51;;;;;;;;;;;4.40;99.90;;;;;;5004992;28;19959;-69
2022/01/07 05:26:17;;;;;;;;;;;4.50;99.90;;;;;;5006870;28;20021;-71
2022/01/07 05:28:42;;;;;;;;;;;4.40;99.90;;;;;;5009158;28;19929;-69
2022/01/07 05:31:08;;;;;;;;;;;4.40;99.90;;;;;;5008142;28;19917;-68
2022/01/07 05:33:34;;;;;;;;;;;4.40;99.90;;;;;;5007972;28;20359;-69
2022/01/07 05:35:59;;;;;;;;;;;4.40;99.90;;;;;;5006370;28;19992;-69
2022/01/07 05:38:25;;;;;;;;;;;4.40;99.90;;;;;;5006163;28;19917;-69
2022/01/07 05:40:50;;;;;;;;;;;4.30;99.90;;;;;;5007722;28;20089;-68
2022/01/07 05:43:16;;;;;;;;;;;4.40;99.90;;;;;;5008403;28;19995;-69
2022/01/07 05:45:44;;;;;;;;;;;4.40;99.90;;;;;;5008467;28;20066;-69
2022/01/07 05:48:10;;;;;;;;;;;4.40;99.90;;;;;;5008552;28;19913;-69
2022/01/07 05:50:36;;;;;;;;;;;4.50;99.90;;;;;;5007914;28;19915;-72
2022/01/07 05:53:01;;;;;;;;;;;4.40;99.90;;;;;;5008480;28;20321;-69
2022/01/07 05:55:27;;;;;;;;;;;4.40;99.90;;;;;;5006672;28;19917;-69
2022/01/07 05:57:52;;;;;;;;;;;4.50;99.90;;;;;;5007170;28;19913;-70
2022/01/07 06:00:18;;;;;;;;;;;4.40;99.90;;;;;;5002055;28;20495;-70
2022/01/07 06:02:43;;;;;;;;;;;4.40;99.90;;;;;;5003766;28;19948;-70
2022/01/07 06:05:09;;;;;;;;;;;4.40;99.90;;;;;;5022337;28;20311;-69
2022/01/07 06:07:35;;;;;;;;;;;4.40;99.90;;;;;;5008486;28;19932;-69
2022/01/07 06:10:00;;;;;;;;;;;4.40;99.90;;;;;;5008834;28;19924;-71
2022/01/07 06:12:26;;;;;;;;;;;4.30;99.90;;;;;;5009951;28;19910;-70
2022/01/07 06:14:51;;;;;;;;;;;4.30;99.90;;;;;;5009485;28;19913;-70
2022/01/07 06:17:18;;;;;;;;;;;4.30;99.90;;;;;;5011712;28;19909;-70
2022/01/07 06:19:43;;;;;;;;;;;4.30;99.90;;;;;;5010991;28;20317;-73
2022/01/07 06:22:10;;;;;;;;;;;4.30;99.90;;;;;;5010725;28;20013;-69
2022/01/07 06:24:35;;;;;;;;;;;4.30;99.90;;;;;;5008609;28;19909;-70
2022/01/07 06:27:01;;;;;;;;;;;4.20;99.90;;;;;;5007184;28;19928;-70
2022/01/07 06:29:26;;;;;;;;;;;4.20;99.90;;;;;;5007823;28;19917;-70
2022/01/07 06:31:52;;;;;;;;;;;4.20;99.90;;;;;;5005744;28;19917;-69
2022/01/07 06:34:20;;;;;;;;;;;4.20;99.90;;;;;;5007806;28;19909;-70
2022/01/07 06:36:48;;;;;;;;;;;4.10;99.90;;;;;;5009457;28;19917;-70
2022/01/07 06:39:15;;;;;;;;;;;4.10;99.90;;;;;;5009569;28;19992;-70
2022/01/07 06:41:40;;;;;;;;;;;4.10;99.90;;;;;;5008565;28;19913;-71
2022/01/07 06:44:06;;;;;;;;;;;4.20;99.90;;;;;;5010995;28;19962;-69
2022/01/07 06:46:31;;;;;;;;;;;4.10;99.90;;;;;;5006385;28;19916;-70
2022/01/07 06:48:57;;;;;;;;;;;4.20;99.90;;;;;;5007917;28;20048;-72
2022/01/07 06:51:22;;;;;;;;;;;4.20;99.90;;;;;;5008307;28;20350;-69
2022/01/07 06:53:48;;;;;;;;;;;4.10;99.90;;;;;;5006832;28;19916;-69
2022/01/07 06:56:14;;;;;;;;;;;4.10;99.90;;;;;;5007773;28;19920;-70
2022/01/07 06:58:39;;;;;;;;;;;4.20;99.90;;;;;;5006367;28;19922;-70
2022/01/07 07:01:08;;;;;;;;;;;4.10;99.90;;;;;;5000534;28;19906;-70
2022/01/07 07:03:35;;;;;;;;;;;4.10;99.90;;;;;;5002851;28;19921;-69
2022/01/07 07:06:00;;;;;;;;;;;4.20;99.90;;;;;;5011461;28;19906;-70
2022/01/07 07:08:28;;;;;;;;;;;4.20;99.90;;;;;;5009798;28;19924;-69
2022/01/07 07:10:54;;;;;;;;;;;4.20;99.90;;;;;;5008945;28;20279;-68
2022/01/07 07:13:20;;;;;;;;;;;4.20;99.90;;;;;;5011054;28;19909;-71
2022/01/07 07:15:45;;;;;;;;;;;4.20;99.90;;;;;;5008122;28;19936;-70
2022/01/07 07:18:11;;;;;;;;;;;4.20;99.90;;;;;;5010639;28;20018;-70
2022/01/07 07:20:36;;;;;;;;;;;4.30;99.90;;;;;;5011403;28;19909;-70
2022/01/07 07:23:02;;;;;;;;;;;4.30;99.90;;;;;;5010549;28;19917;-69
2022/01/07 07:25:28;;;;;;;;;;;4.30;99.90;;;;;;5009760;28;20047;-69
2022/01/07 07:27:53;;;;;;;;;;;4.40;99.90;;;;;;5010409;28;19972;-70
2022/01/07 07:30:39;;;;;;;;;;;4.40;99.90;;;;;;5010854;28;19921;-71
2022/01/07 07:38:33;;;;;;;;;;;4.40;99.90;;;;;;5007279;28;20469;-70
2022/01/07 07:40:59;;;;;;;;;;;4.40;99.90;;;;;;5012079;28;19910;-69
2022/01/07 07:43:24;;;;;;;;;;;4.40;99.90;;;;;;5005192;28;19920;-70
2022/01/07 07:45:50;;;;;;;;;;;4.40;99.90;;;;;;5011748;28;19905;-70
2022/01/07 07:48:18;;;;;;;;;;;4.40;99.90;;;;;;5012161;28;19964;-70
2022/01/07 07:50:43;;;;;;;;;;;4.50;99.90;;;;;;5013163;28;19905;-70
2022/01/07 07:53:09;;;;;;;;;;;4.60;99.90;;;;;;5008848;28;20291;-69
2022/01/07 07:55:34;;;;;;;;;;;4.70;99.90;;;;;;5015045;28;19915;-71
2022/01/07 07:58:00;;;;;;;;;;;4.80;99.90;;;;;;5011569;28;19914;-70
2022/01/07 08:00:26;;;;;;;;;;;4.80;99.90;;;;;;5010954;28;19909;-71
2022/01/07 08:02:51;;;;;;;;;;;4.70;99.90;;;;;;5011759;28;19925;-70
2022/01/07 08:05:17;;;;;;;;;;;4.50;99.90;;;;;;5006718;28;19913;-69
2022/01/07 08:07:42;;;;;;;;;;;4.60;99.90;;;;;;5006904;28;20426;-70
2022/01/07 08:10:08;;;;;;;;;;;4.50;99.90;;;;;;5008415;28;19910;-70
2022/01/07 08:18:11;;;;;;;;;;;4.70;99.90;;;;;;5006543;28;19929;-71
2022/01/07 08:20:38;;;;;;;;;;;4.80;99.90;;;;;;5010745;28;19909;-73
2022/01/07 08:23:03;;;;;;;;;;;5.00;99.90;;;;;;5009734;28;20024;-71
2022/01/07 08:25:29;;;;;;;;;;;5.10;99.90;;;;;;5010902;28;20008;-63
2022/01/07 08:27:56;;;;;;;;;;;5.10;99.90;;;;;;5010566;28;19913;-62
2022/01/07 08:30:25;;;;;;;;;;;5.10;99.90;;;;;;5010083;28;19973;-63
2022/01/07 08:35:35;;;;;;;;;;;5.10;99.90;;;;;;5012923;28;19963;-61
2022/01/07 08:38:01;;;;;;;;;;;5.10;99.90;;;;;;5011368;28;19952;-60
2022/01/07 08:40:26;;;;;;;;;;;5.20;99.90;;;;;;5008645;28;19921;-62
2022/01/07 08:42:52;;;;;;;;;;;5.20;99.90;;;;;;5010795;28;19959;-63
2022/01/07 08:45:29;;;;;;;;;;;5.30;99.90;;;;;;5011445;28;19941;-61
2022/01/07 08:47:59;;;;;;;;;;;5.30;99.90;;;;;;5011065;28;19910;-61
2022/01/07 08:50:25;;;;;;;;;;;5.30;99.90;;;;;;5010063;28;19909;-61
2022/01/07 08:52:52;;;;;;;;;;;5.30;99.90;;;;;;5008615;28;19932;-62
2022/01/07 08:55:18;;;;;;;;;;;5.40;99.90;;;;;;5010225;28;19992;-61
2022/01/07 08:57:44;;;;;;;;;;;5.50;99.90;;;;;;5010180;28;20426;-61
2022/01/07 09:00:10;;;;;;;;;;;5.50;99.90;;;;;;5009949;28;19922;-60
2022/01/07 09:02:36;;;;;;;;;;;5.50;99.90;;;;;;5010345;28;20578;-63
2022/01/07 09:05:01;;;;;;;;;;;5.60;99.90;;;;;;5006921;28;19955;-62
2022/01/07 09:07:27;;;;;;;;;;;5.60;99.90;;;;;;5008100;28;19909;-63
2022/01/07 09:09:52;;;;;;;;;;;5.70;99.90;;;;;;5008140;28;19919;-72
2022/01/07 09:12:18;;;;;;;;;;;5.60;99.90;;;;;;5010356;28;20008;-70
2022/01/07 09:14:44;;;;;;;;;;;5.60;99.90;;;;;;5009712;28;19917;-71
2022/01/07 09:17:09;;;;;;;;;;;5.50;99.90;;;;;;5007748;28;19909;-71
2022/01/07 09:19:35;;;;;;;;;;;5.60;99.90;;;;;;5009658;28;19905;-70
2022/01/07 09:22:00;;;;;;;;;;;5.70;99.90;;;;;;5011375;28;19909;-70
2022/01/07 09:24:27;;;;;;;;;;;5.70;99.90;;;;;;5010244;28;20474;-70
2022/01/07 09:26:53;;;;;;;;;;;5.70;99.90;;;;;;5008467;28;19927;-70
2022/01/07 09:29:19;;;;;;;;;;;5.80;99.90;;;;;;5006856;28;19919;-70
2022/01/07 09:31:45;;;;;;;;;;;5.90;99.90;;;;;;5008919;28;20000;-69
2022/01/07 09:34:10;;;;;;;;;;;6.00;99.90;;;;;;5008518;28;19909;-70
2022/01/07 09:36:36;;;;;;;;;;;5.90;99.90;;;;;;5013925;28;20334;-72
2022/01/07 09:39:02;;;;;;;;;;;5.70;99.90;;;;;;5013411;28;19909;-74
2022/01/07 09:41:28;;;;;;;;;;;5.70;99.90;;;;;;5014948;28;19909;-71
2022/01/07 09:43:54;;;;;;;;;;;5.80;99.90;;;;;;5011875;28;19909;-71
2022/01/07 09:46:20;;;;;;;;;;;5.70;99.90;;;;;;5010975;28;20544;-71
2022/01/07 09:48:45;;;;;;;;;;;5.70;99.90;;;;;;5010573;28;19955;-69
2022/01/07 09:51:15;;;;;;;;;;;5.70;99.90;;;;;;5013132;28;19932;-72
2022/01/07 09:53:41;;;;;;;;;;;5.80;99.90;;;;;;5012649;28;19949;-70
2022/01/07 09:56:06;;;;;;;;;;;5.80;99.90;;;;;;5009928;28;19909;-69
2022/01/07 09:58:33;;;;;;;;;;;5.90;99.90;;;;;;5009642;28;19988;-72
2022/01/07 10:01:09;;;;;;;;;;;5.80;99.90;;;;;;5008591;28;19909;-70
2022/01/07 10:03:36;;;;;;;;;;;5.80;99.90;;;;;;5010211;28;20398;-69
2022/01/07 10:06:02;;;;;;;;;;;5.80;99.90;;;;;;5008935;28;19910;-70
2022/01/07 10:08:28;;;;;;;;;;;5.90;99.90;;;;;;5008451;28;19916;-68
2022/01/07 10:11:14;;;;;;;;;;;5.90;99.90;;;;;;5009728;28;20275;-71
2022/01/07 10:13:44;;;;;;;;;;;6.10;99.90;;;;;;5007056;28;19917;-70
2022/01/07 10:16:19;;;;;;;;;;;6.10;99.90;;;;;;5026460;28;20360;-70
2022/01/07 10:18:47;;;;;;;;;;;6.10;99.90;;;;;;5002658;28;20314;-70
2022/01/07 10:21:13;;;;;;;;;;;6.10;99.90;;;;;;5005734;28;19909;-70
2022/01/07 10:23:39;;;;;;;;;;;6.10;99.90;;;;;;5008335;28;20436;-66
2022/01/07 10:26:11;;;;;;;;;;;6.00;99.90;;;;;;5011143;28;19910;-70
2022/01/07 10:28:37;;;;;;;;;;;6.10;99.90;;;;;;5010592;28;19905;-70
2022/01/07 10:31:03;;;;;;;;;;;6.20;99.90;;;;;;5002458;28;20446;-70
2022/01/07 10:33:35;;;;;;;;;;;6.20;99.90;;;;;;5008409;28;19913;-70
2022/01/07 10:36:07;;;;;;;;;;;6.10;99.90;;;;;;5025371;28;19924;-70
2022/01/07 10:38:33;;;;;;;;;;;6.20;99.90;;;;;;5008976;28;19909;-70
2022/01/07 10:40:59;;;;;;;;;;;6.40;99.90;;;;;;5006796;28;19993;-69
2022/01/07 10:43:35;;;;;;;;;;;6.40;99.90;;;;;;5012219;28;20463;-69
2022/01/07 10:46:00;;;;;;;;;;;6.30;99.90;;;;;;5008940;28;19912;-70
2022/01/07 10:48:37;;;;;;;;;;;6.40;99.90;;;;;;5012947;28;19909;-69
2022/01/07 10:51:07;;;;;;;;;;;6.50;99.90;;;;;;5010608;28;19952;-68
2022/01/07 10:53:33;;;;;;;;;;;6.40;99.90;;;;;;5012925;28;19922;-69
2022/01/07 10:56:02;;;;;;;;;;;6.30;99.90;;;;;;5013770;28;19905;-69
2022/01/07 10:58:28;;;;;;;;;;;6.30;99.90;;;;;;5008682;28;19917;-69
2022/01/07 11:00:53;;;;;;;;;;;6.50;99.90;;;;;;5010439;28;19905;-70
2022/01/07 11:03:19;;;;;;;;;;;6.60;99.90;;;;;;5008051;28;19920;-71
2022/01/07 11:05:45;;;;;;;;;;;6.50;99.90;;;;;;5012472;28;20000;-70
2022/01/07 11:08:12;;;;;;;;;;;6.40;99.90;;;;;;5010281;28;20382;-69
2022/01/07 11:10:38;;;;;;;;;;;6.50;99.90;;;;;;5011545;28;19956;-71
2022/01/07 11:13:04;;;;;;;;;;;6.60;99.90;;;;;;5012543;28;19910;-70
2022/01/07 11:15:29;;;;;;;;;;;6.50;99.90;;;;;;5012477;28;20303;-70
2022/01/07 11:17:55;;;;;;;;;;;6.40;99.90;;;;;;5012858;28;19909;-72
2022/01/07 11:20:24;;;;;;;;;;;6.50;99.90;;;;;;5014542;28;19929;-71
2022/01/07 11:22:54;;;;;;;;;;;6.50;99.90;;;;;;5012596;28;19913;-70
2022/01/07 11:25:20;;;;;;;;;;;6.60;99.90;;;;;;5013971;28;19957;-73
2022/01/07 11:27:45;;;;;;;;;;;6.50;99.90;;;;;;5010609;28;19940;-71
2022/01/07 11:30:14;;;;;;;;;;;6.50;99.90;;;;;;5008365;28;19909;-70
2022/01/07 11:32:41;;;;;;;;;;;6.60;99.90;;;;;;5012403;28;19959;-71
2022/01/07 11:35:19;;;;;;;;;;;6.70;99.90;;;;;;5012736;28;20004;-69
2022/01/07 11:37:50;;;;;;;;;;;6.60;99.90;;;;;;5011008;28;19924;-69
2022/01/07 11:40:28;;;;;;;;;;;6.70;99.90;;;;;;5011691;28;19909;-70
2022/01/07 11:42:54;;;;;;;;;;;6.60;99.90;;;;;;5012231;28;19925;-70
2022/01/07 11:45:27;;;;;;;;;;;6.70;99.90;;;;;;5012632;28;19987;-69
2022/01/07 11:47:53;;;;;;;;;;;6.70;99.90;;;;;;5008089;28;19913;-70
2022/01/07 11:50:19;;;;;;;;;;;6.70;99.90;;;;;;5010172;28;19909;-69
2022/01/07 11:52:56;;;;;;;;;;;6.90;99.90;;;;;;5011662;28;19910;-68
2022/01/07 11:55:26;;;;;;;;;;;6.90;99.90;;;;;;5013356;28;19909;-69
2022/01/07 11:57:57;;;;;;;;;;;6.80;99.90;;;;;;5011883;28;20157;-70
2022/01/07 12:00:42;;;;;;;;;;;6.70;99.90;;;;;;5010581;28;20176;-70
2022/01/07 12:03:07;;;;;;;;;;;6.80;99.90;;;;;;5010400;28;19967;-67
2022/01/07 12:05:33;;;;;;;;;;;6.90;99.90;;;;;;5010004;28;19913;-68
2022/01/07 12:07:58;;;;;;;;;;;6.90;99.90;;;;;;5011051;28;19915;-68
2022/01/07 12:10:24;;;;;;;;;;;6.90;99.90;;;;;;5015424;28;20422;-69
2022/01/07 12:12:57;;;;;;;;;;;6.70;99.90;;;;;;5013494;28;19956;-66
2022/01/07 12:15:22;;;;;;;;;;;6.90;99.90;;;;;;5012160;28;20339;-68
2022/01/07 12:17:48;;;;;;;;;;;7.00;99.90;;;;;;5009829;28;19956;-68
2022/01/07 12:20:37;;;;;;;;;;;7.10;99.90;;;;;;5010690;28;19917;-68
2022/01/07 12:23:02;;;;;;;;;;;7.00;99.90;;;;;;5000021;28;19917;-68
2022/01/07 12:25:28;;;;;;;;;;;7.20;99.90;;;;;;5007938;28;19917;-70
2022/01/07 12:28:01;;;;;;;;;;;7.20;99.90;;;;;;5007665;28;20019;-68
2022/01/07 12:30:27;;;;;;;;;;;7.20;99.90;;;;;;5007492;28;20005;-69
2022/01/07 12:32:56;;;;;;;;;;;7.20;99.90;;;;;;5010864;28;20236;-69
2022/01/07 12:35:22;;;;;;;;;;;7.20;99.90;;;;;;5012056;28;19928;-67
2022/01/07 12:37:47;;;;;;;;;;;7.20;99.90;;;;;;5010817;28;19916;-68
2022/01/07 12:40:13;;;;;;;;;;;7.30;99.90;;;;;;5012491;28;20563;-67
2022/01/07 12:42:41;;;;;;;;;;;7.20;99.90;;;;;;5010522;28;19967;-69
2022/01/07 12:45:11;;;;;;;;;;;7.20;99.90;;;;;;5011024;28;19935;-67
2022/01/07 12:47:37;;;;;;;;;;;7.20;99.90;;;;;;5011067;28;19910;-66
2022/01/07 12:50:04;;;;;;;;;;;7.20;99.90;;;;;;5010128;28;19964;-68
2022/01/07 12:52:37;;;;;;;;;;;7.30;99.90;;;;;;5009587;28;19910;-67
2022/01/07 12:55:03;;;;;;;;;;;7.30;99.90;;;;;;5005331;28;19913;-69
2022/01/07 12:57:31;;;;;;;;;;;7.40;99.90;;;;;;5007635;28;20362;-68
2022/01/07 13:00:06;;;;;;;;;;;7.40;99.90;;;;;;5009982;28;20322;-70
2022/01/07 13:02:32;;;;;;;;;;;7.30;99.90;;;;;;5004832;28;19928;-68
2022/01/07 13:05:16;;;;;;;;;;;7.40;99.90;;;;;;5007472;28;19909;-67
2022/01/07 13:07:43;;;;;;;;;;;7.30;99.90;;;;;;5005919;28;20169;-70
2022/01/07 13:10:09;;;;;;;;;;;7.30;99.90;;;;;;5006535;28;19951;-70
2022/01/07 13:12:35;;;;;;;;;;;7.30;99.90;;;;;;5010839;28;19967;-71
2022/01/07 13:15:01;;;;;;;;;;;7.20;99.90;;;;;;5009396;28;19913;-72
2022/01/07 13:17:28;;;;;;;;;;;7.20;99.90;;;;;;5010924;28;20303;-72
2022/01/07 13:19:54;;;;;;;;;;;7.20;99.90;;;;;;5008785;28;19913;-71
2022/01/07 13:22:23;;;;;;;;;;;7.20;99.90;;;;;;5011039;28;20272;-71
2022/01/07 13:24:49;;;;;;;;;;;7.20;99.90;;;;;;5010049;28;19932;-72
2022/01/07 13:27:14;;;;;;;;;;;7.00;99.90;;;;;;5009024;28;20375;-72
2022/01/07 13:29:45;;;;;;;;;;;7.20;99.90;;;;;;5010251;28;19909;-71
2022/01/07 13:32:11;;;;;;;;;;;7.10;99.90;;;;;;5008417;28;19909;-71
2022/01/07 13:34:39;;;;;;;;;;;7.00;99.90;;;;;;5010253;28;20012;-73
2022/01/07 13:37:06;;;;;;;;;;;7.00;99.90;;;;;;5012084;28;19997;-71
2022/01/07 13:39:42;;;;;;;;;;;6.90;99.90;;;;;;5008751;28;19940;-71
2022/01/07 13:42:08;;;;;;;;;;;7.00;99.90;;;;;;5010656;28;19910;-71
2022/01/07 13:44:49;;;;;;;;;;;6.80;99.90;;;;;;5011456;28;19913;-72
2022/01/07 13:47:18;;;;;;;;;;;6.80;99.90;;;;;;5009480;28;20283;-73
2022/01/07 13:49:44;;;;;;;;;;;6.80;99.90;;;;;;5009513;28;19913;-72
2022/01/07 13:52:09;;;;;;;;;;;6.70;99.90;;;;;;5012514;28;19912;-72
2022/01/07 13:54:43;;;;;;;;;;;6.70;99.90;;;;;;5010890;28;20301;-71
2022/01/07 13:57:11;;;;;;;;;;;6.60;99.90;;;;;;5011672;28;19910;-71
2022/01/07 13:59:40;;;;;;;;;;;6.60;99.90;;;;;;5009718;28;20375;-72
2022/01/07 14:02:06;;;;;;;;;;;6.60;99.90;;;;;;5010497;28;19928;-72
2022/01/07 14:04:45;;;;;;;;;;;6.70;99.90;;;;;;5010641;28;19910;-72
2022/01/07 14:07:29;;;;;;;;;;;6.80;99.90;;;;;;5009288;28;19909;-71
2022/01/07 14:10:09;;;;;;;;;;;6.60;99.90;;;;;;5006420;28;20070;-73
2022/01/07 14:12:35;;;;;;;;;;;6.60;99.90;;;;;;5010728;28;19920;-73
2022/01/07 14:15:03;;;;;;;;;;;6.60;99.90;;;;;;5013098;28;19917;-72
2022/01/07 14:17:30;;;;;;;;;;;6.60;99.90;;;;;;5018406;28;19909;-72
2022/01/07 14:19:57;;;;;;;;;;;6.60;99.90;;;;;;5009705;28;20271;-71
2022/01/07 14:22:22;;;;;;;;;;;6.60;99.90;;;;;;5009914;28;20361;-71
2022/01/07 14:24:49;;;;;;;;;;;6.50;99.90;;;;;;5010449;28;20008;-71
2022/01/07 14:27:25;;;;;;;;;;;6.50;99.90;;;;;;5010150;28;19909;-71
2022/01/07 14:29:50;;;;;;;;;;;6.50;99.90;;;;;;5012196;28;19913;-70
2022/01/07 14:32:16;;;;;;;;;;;6.50;99.90;;;;;;5008760;28;19915;-72
2022/01/07 14:34:41;;;;;;;;;;;6.50;99.90;;;;;;5006710;28;20256;-71
2022/01/07 14:37:07;;;;;;;;;;;6.40;99.90;;;;;;5009176;28;20367;-73
2022/01/07 14:39:33;;;;;;;;;;;6.40;99.90;;;;;;5009108;28;19960;-71
2022/01/07 14:41:58;;;;;;;;;;;6.30;99.90;;;;;;5008999;28;20407;-72